Time;durP1;ratioP1;P1;durP2;ratioP2;P2;SDS_P1;SDS_P2;PMS_P1;PMS_P2;Temp;Humidity;BMP_temperature;BMP_pressure;BME280_temperature;BME280_humidity;BME280_pressure;Samples;Min_cycle;Max_cycle;Signal;HPM_P1;HPM_P2
2021/04/28 00:00:40;;;;;;;10.48;5.25;;;6.00;63.40;;;;;;5106518;28;20420;-50
2021/04/28 00:03:11;;;;;;;9.57;5.60;;;5.90;63.50;;;;;;5105677;28;20050;-49
2021/04/28 00:05:37;;;;;;;6.95;5.68;;;5.90;63.20;;;;;;5103499;28;20039;-50
2021/04/28 00:08:09;;;;;;;8.30;4.72;;;5.90;63.60;;;;;;5106107;28;20054;-50
2021/04/28 00:10:40;;;;;;;9.73;5.47;;;5.80;63.60;;;;;;5106057;28;20175;-49
2021/04/28 00:13:17;;;;;;;7.88;5.90;;;5.80;63.60;;;;;;5107098;28;20112;-49
2021/04/28 00:15:52;;;;;;;7.43;5.13;;;5.80;63.70;;;;;;5109601;28;20048;-50
2021/04/28 00:18:22;;;;;;;8.55;4.95;;;5.80;63.40;;;;;;5105686;28;20138;-47
2021/04/28 00:20:53;;;;;;;10.55;6.07;;;5.80;63.50;;;;;;5113362;28;20449;-50
2021/04/28 00:23:20;;;;;;;6.13;5.00;;;5.80;63.10;;;;;;5105917;28;20547;-50
2021/04/28 00:25:48;;;;;;;10.18;5.47;;;5.80;63.00;;;;;;5102315;28;20083;-48
2021/04/28 00:28:18;;;;;;;7.88;5.28;;;5.80;63.20;;;;;;5104219;28;20051;-50
2021/04/28 00:30:47;;;;;;;8.70;5.28;;;5.70;63.10;;;;;;5105808;28;20043;-53
2021/04/28 00:33:16;;;;;;;7.80;5.70;;;5.70;63.40;;;;;;5106148;28;20047;-50
2021/04/28 00:35:45;;;;;;;7.80;4.70;;;5.60;63.30;;;;;;5086873;28;20051;-49
2021/04/28 00:38:14;;;;;;;11.77;5.43;;;5.60;63.40;;;;;;5105705;28;20051;-48
2021/04/28 00:40:44;;;;;;;10.65;5.13;;;5.70;63.20;;;;;;5082583;28;20047;-50
2021/04/28 00:43:16;;;;;;;8.33;5.33;;;5.60;63.30;;;;;;5088409;28;20051;-50
2021/04/28 00:45:47;;;;;;;7.95;5.85;;;5.60;63.90;;;;;;5087178;28;20320;-51
2021/04/28 00:48:16;;;;;;;8.38;5.40;;;5.50;63.30;;;;;;5086292;28;20516;-48
2021/04/28 00:50:45;;;;;;;8.95;5.68;;;5.50;63.40;;;;;;5087102;28;20075;-51
2021/04/28 00:53:17;;;;;;;8.88;5.05;;;5.50;63.70;;;;;;5086994;28;20039;-51
2021/04/28 00:55:45;;;;;;;;;;;5.50;63.70;;;;;;5086750;28;20070;-51
2021/04/28 00:58:12;;;;;;;7.68;5.68;;;5.40;65.10;;;;;;5094601;28;20407;-51
2021/04/28 01:00:42;;;;;;;6.57;5.10;;;5.40;63.40;;;;;;5087182;28;20526;-48
2021/04/28 01:03:15;;;;;;;8.60;5.28;;;5.40;63.70;;;;;;5087902;28;20472;-48
2021/04/28 01:05:45;;;;;;;7.32;5.63;;;5.40;63.90;;;;;;5086365;28;20124;-49
2021/04/28 01:08:19;;;;;;;8.73;5.38;;;5.30;64.40;;;;;;5101237;28;20051;-47
2021/04/28 01:10:49;;;;;;;7.82;5.38;;;5.30;64.10;;;;;;5086688;28;20043;-47
2021/04/28 01:13:20;;;;;;;8.57;5.90;;;5.20;64.20;;;;;;5086787;28;20055;-50
2021/04/28 01:15:49;;;;;;;7.60;5.20;;;5.20;64.00;;;;;;5086511;28;20051;-49
2021/04/28 01:18:19;;;;;;;6.70;5.57;;;5.20;64.40;;;;;;5108771;28;20419;-50
2021/04/28 01:20:47;;;;;;;6.63;5.20;;;5.10;64.30;;;;;;5090895;28;20043;-51
2021/04/28 01:23:15;;;;;;;10.07;5.03;;;5.20;64.30;;;;;;5096148;28;20128;-48
2021/04/28 01:25:45;;;;;;;8.43;4.78;;;5.20;64.20;;;;;;5095814;28;20051;-48
2021/04/28 01:28:24;;;;;;;9.10;5.13;;;5.10;64.40;;;;;;5088906;28;20479;-50
2021/04/28 01:31:00;;;;;;;8.27;4.93;;;5.10;64.50;;;;;;5090994;28;20065;-49
2021/04/28 01:33:33;;;;;;;9.38;5.95;;;5.10;64.20;;;;;;5109174;28;20043;-48
2021/04/28 01:36:01;;;;;;;8.23;5.35;;;5.10;63.90;;;;;;5089317;28;20051;-49
2021/04/28 01:38:40;;;;;;;11.27;5.50;;;5.10;64.10;;;;;;5091288;28;20039;-49
2021/04/28 01:41:07;;;;;;;7.63;4.50;;;5.10;64.20;;;;;;5091056;28;20047;-51
2021/04/28 01:43:41;;;;;;;6.95;5.50;;;5.00;63.90;;;;;;5088765;28;20043;-49
2021/04/28 01:46:11;;;;;;;10.13;5.35;;;5.10;63.90;;;;;;5080454;28;20060;-49
2021/04/28 01:48:42;;;;;;;7.80;5.30;;;5.00;64.10;;;;;;5067048;28;20048;-48
2021/04/28 01:51:13;;;;;;;6.25;4.93;;;5.00;63.90;;;;;;5066856;28;20135;-48
2021/04/28 01:53:42;;;;;;;10.00;5.32;;;5.00;64.20;;;;;;5066822;28;20055;-47
2021/04/28 01:56:10;;;;;;;6.63;4.75;;;4.90;64.40;;;;;;5067236;28;20052;-47
2021/04/28 01:58:59;;;;;;;6.32;4.82;;;4.90;64.40;;;;;;5067393;28;20086;-48
2021/04/28 02:01:53;;;;;;;9.88;6.10;;;4.90;64.70;;;;;;5066277;28;20382;-49
2021/04/28 02:04:23;;;;;;;8.65;4.85;;;4.80;65.00;;;;;;5061881;28;20125;-49
2021/04/28 02:06:52;;;;;;;7.38;4.80;;;4.80;64.40;;;;;;5065984;28;20087;-49
2021/04/28 02:09:22;;;;;;;8.07;5.35;;;4.70;64.70;;;;;;5062739;28;20044;-49
2021/04/28 02:11:49;;;;;;;6.13;4.78;;;4.70;64.90;;;;;;5073984;28;20040;-51
2021/04/28 02:14:20;;;;;;;8.38;5.50;;;4.70;64.50;;;;;;5065955;28;20179;-49
2021/04/28 02:17:05;;;;;;;7.20;4.97;;;4.70;64.70;;;;;;5066388;28;20544;-49
2021/04/28 02:19:40;;;;;;;7.45;5.32;;;4.70;64.60;;;;;;5066890;28;20094;-51
2021/04/28 02:22:11;;;;;;;6.72;4.75;;;4.70;64.40;;;;;;5067371;28;20079;-47
2021/04/28 02:24:50;;;;;;;7.95;5.00;;;4.70;65.00;;;;;;5065939;28;20059;-50
2021/04/28 02:27:29;;;;;;;7.20;5.38;;;4.60;64.90;;;;;;5065771;28;20642;-48
2021/04/28 02:29:56;;;;;;;8.90;5.15;;;4.60;65.40;;;;;;5074599;28;20033;-51
2021/04/28 02:32:25;;;;;;;8.10;5.03;;;4.60;65.70;;;;;;5066490;28;20195;-48
2021/04/28 02:35:26;;;;;;;8.05;5.35;;;4.50;65.90;;;;;;5017134;28;20079;-48
2021/04/28 02:38:31;;;;;;;9.18;5.03;;;4.50;65.80;;;;;;4952513;28;20047;-49
2021/04/28 02:41:09;;;;;;;6.55;4.80;;;4.50;65.90;;;;;;4952325;28;20050;-51
2021/04/28 02:43:44;;;;;;;10.68;4.78;;;4.50;66.10;;;;;;4956835;28;20495;-49
2021/04/28 02:46:18;;;;;;;9.45;4.60;;;4.50;65.80;;;;;;4950403;28;20059;-49
2021/04/28 02:48:50;;;;;;;9.80;5.00;;;4.50;65.80;;;;;;4949715;28;20125;-47
2021/04/28 02:51:37;;;;;;;9.55;5.40;;;4.50;65.80;;;;;;4954884;28;20074;-50
2021/04/28 02:54:12;;;;;;;7.05;5.07;;;4.50;65.90;;;;;;4959393;28;20881;-49
2021/04/28 02:56:42;;;;;;;6.32;4.85;;;4.50;66.10;;;;;;4951821;28;20044;-50
2021/04/28 02:59:12;;;;;;;8.00;5.25;;;4.50;66.30;;;;;;4955444;28;20102;-48
2021/04/28 03:01:43;;;;;;;7.38;5.13;;;4.50;66.10;;;;;;4957781;28;20098;-52
2021/04/28 03:04:10;;;;;;;8.80;4.90;;;4.50;65.90;;;;;;4944463;28;20134;-47
2021/04/28 03:07:00;;;;;;;7.60;4.35;;;4.50;65.80;;;;;;4963635;28;20050;-50
2021/04/28 03:09:34;;;;;;;6.40;4.75;;;4.60;65.70;;;;;;4959078;28;20054;-48
2021/04/28 03:12:04;;;;;;;9.90;4.82;;;4.50;65.80;;;;;;4986307;28;20072;-49
2021/04/28 03:14:40;;;;;;;8.35;5.35;;;4.50;66.10;;;;;;5029195;28;20524;-48
2021/04/28 03:17:09;;;;;;;9.40;4.93;;;4.50;66.40;;;;;;5066519;28;20144;-49
2021/04/28 03:19:37;;;;;;;8.30;4.75;;;4.50;66.50;;;;;;5064379;28;20755;-48
2021/04/28 03:22:03;;;;;;;8.05;4.80;;;4.50;66.20;;;;;;5062888;28;20093;-49
2021/04/28 03:24:36;;;;;;;8.50;4.90;;;4.50;66.10;;;;;;5062304;28;20082;-46
2021/04/28 03:27:09;;;;;;;6.47;4.55;;;4.50;66.20;;;;;;5066562;28;20102;-50
2021/04/28 03:29:39;;;;;;;7.78;5.40;;;4.40;66.30;;;;;;5065156;28;20152;-49
2021/04/28 03:32:12;;;;;;;7.65;3.92;;;4.40;66.20;;;;;;5065366;28;20053;-50
2021/04/28 03:34:44;;;;;;;8.60;5.50;;;4.40;66.20;;;;;;5060860;28;20072;-50
2021/04/28 03:37:13;;;;;;;9.43;4.93;;;4.40;66.20;;;;;;5070551;28;20464;-49
2021/04/28 03:39:51;;;;;;;6.32;4.65;;;4.40;66.40;;;;;;5063067;28;20071;-49
2021/04/28 03:42:22;;;;;;;6.45;4.40;;;4.40;66.30;;;;;;5065972;28;20145;-52
2021/04/28 03:44:55;;;;;;;7.72;4.50;;;4.30;66.00;;;;;;5063375;28;20044;-49
2021/04/28 03:47:24;;;;;;;7.63;5.22;;;4.40;66.10;;;;;;5066054;28;20771;-49
2021/04/28 03:49:51;;;;;;;6.63;4.38;;;4.30;66.00;;;;;;5063978;28;20101;-49
2021/04/28 03:52:18;;;;;;;5.38;4.30;;;4.30;66.00;;;;;;5064970;28;20052;-49
2021/04/28 03:55:18;;;;;;;6.90;4.50;;;4.20;66.00;;;;;;5042275;28;20139;-48
2021/04/28 03:57:47;;;;;;;6.40;4.75;;;4.20;66.10;;;;;;5066713;28;20064;-50
2021/04/28 04:00:17;;;;;;;5.53;3.90;;;4.20;66.10;;;;;;5064665;28;20053;-49
2021/04/28 04:02:56;;;;;;;5.60;3.83;;;4.20;66.20;;;;;;5064830;28;20782;-50
2021/04/28 04:06:07;;;;;;;7.63;4.07;;;4.10;66.00;;;;;;4999334;28;21373;-47
2021/04/28 04:08:36;;;;;;;6.70;4.15;;;4.10;66.10;;;;;;4974689;28;20513;-49
2021/04/28 04:11:06;;;;;;;5.60;3.85;;;4.10;66.60;;;;;;4993812;28;20454;-50
2021/04/28 04:13:36;;;;;;;7.50;4.47;;;4.10;66.40;;;;;;4985028;28;20760;-49
2021/04/28 04:16:03;;;;;;;6.05;4.53;;;4.00;66.70;;;;;;4973022;28;20131;-49
2021/04/28 04:18:32;;;;;;;6.13;3.88;;;4.00;66.40;;;;;;4974545;28;20101;-50
2021/04/28 04:21:04;;;;;;;8.27;4.43;;;3.90;66.80;;;;;;4981300;28;20057;-51
2021/04/28 04:23:32;;;;;;;7.00;4.72;;;3.90;66.70;;;;;;4983816;28;20058;-48
2021/04/28 04:26:17;;;;;;;8.73;3.97;;;4.00;66.80;;;;;;4993962;28;20053;-51
2021/04/28 04:29:13;;;;;;;7.47;3.80;;;3.90;66.80;;;;;;4994280;28;20050;-51
2021/04/28 04:31:54;;;;;;;5.22;3.92;;;3.90;66.60;;;;;;4986350;28;20054;-49
2021/04/28 04:34:39;;;;;;;7.07;3.83;;;3.90;67.10;;;;;;4999409;28;20053;-48
2021/04/28 04:37:24;;;;;;;8.10;4.63;;;3.90;66.70;;;;;;5048150;28;20472;-52
2021/04/28 04:39:59;;;;;;;8.55;4.00;;;3.90;66.50;;;;;;5063877;28;20570;-49
2021/04/28 04:42:57;;;;;;;6.57;3.55;;;4.00;66.50;;;;;;5017963;28;20045;-48
2021/04/28 04:45:50;;;;;;;8.05;4.20;;;4.00;66.40;;;;;;4979193;28;20217;-49
2021/04/28 04:48:19;;;;;;;6.13;3.85;;;3.90;66.60;;;;;;4994488;28;20652;-48
2021/04/28 04:50:48;;;;;;;7.60;3.90;;;4.00;66.60;;;;;;4988812;28;20061;-50
2021/04/28 04:53:16;;;;;;;6.60;3.67;;;4.00;66.20;;;;;;4997345;28;20054;-47
2021/04/28 04:55:44;;;;;;;7.40;3.72;;;4.00;66.50;;;;;;4995271;28;20056;-49
2021/04/28 04:58:11;;;;;;;7.85;4.13;;;4.00;66.50;;;;;;4996538;28;20498;-49
2021/04/28 05:00:43;;;;;;;7.90;3.95;;;4.00;66.60;;;;;;4996503;28;20058;-49
2021/04/28 05:03:11;;;;;;;6.82;3.80;;;4.10;66.50;;;;;;4992230;28;20096;-49
2021/04/28 05:05:38;;;;;;;4.97;3.60;;;4.10;66.60;;;;;;4991132;28;20124;-47
2021/04/28 05:08:07;;;;;;;5.60;3.95;;;4.10;66.30;;;;;;4990019;28;20054;-48
2021/04/28 05:10:36;;;;;;;5.32;3.38;;;4.10;66.50;;;;;;4995619;28;20049;-46
2021/04/28 05:13:03;;;;;;;7.82;3.63;;;4.20;66.40;;;;;;4989212;28;20046;-48
2021/04/28 05:15:30;;;;;;;6.35;3.85;;;4.30;66.40;;;;;;4994259;28;20050;-48
2021/04/28 05:17:58;;;;;;;8.50;4.10;;;4.60;65.90;;;;;;4994232;28;20233;-49
2021/04/28 05:20:27;;;;;;;6.75;4.50;;;4.70;65.20;;;;;;5029217;28;20053;-47
2021/04/28 05:22:55;;;;;;;7.13;3.72;;;4.90;65.00;;;;;;5059714;28;20047;-51
2021/04/28 05:25:34;;;;;;;6.85;3.38;;;5.10;64.70;;;;;;5082122;28;20048;-47
2021/04/28 05:28:06;;;;;;;5.15;3.85;;;5.30;64.60;;;;;;5092988;28;20048;-48
2021/04/28 05:30:35;;;;;;;5.22;3.75;;;5.40;64.20;;;;;;5085068;28;20056;-49
2021/04/28 05:33:05;;;;;;;6.70;3.22;;;5.60;64.20;;;;;;5084388;28;20485;-47
2021/04/28 05:35:33;;;;;;;7.93;3.97;;;5.60;63.60;;;;;;5085055;28;20044;-50
2021/04/28 05:38:01;;;;;;;5.95;3.83;;;5.70;63.50;;;;;;5084681;28;20048;-48
2021/04/28 05:40:30;;;;;;;6.50;3.83;;;5.80;63.90;;;;;;5080938;28;20048;-51
2021/04/28 05:43:04;;;;;;;11.13;3.92;;;5.90;64.00;;;;;;5083722;28;20133;-48
2021/04/28 05:45:43;;;;;;;7.05;4.15;;;6.30;63.10;;;;;;5083409;28;20048;-53
2021/04/28 05:48:15;;;;;;;5.80;3.65;;;6.70;61.90;;;;;;5103329;28;20051;-51
2021/04/28 05:50:45;;;;;;;5.47;3.50;;;7.10;61.00;;;;;;5104225;28;20040;-53
2021/04/28 05:53:14;;;;;;;6.78;3.75;;;7.30;60.40;;;;;;5104953;28;20048;-51
2021/04/28 05:55:47;;;;;;;8.70;3.70;;;7.40;59.20;;;;;;5104884;28;20048;-50
2021/04/28 05:58:16;;;;;;;5.00;3.63;;;7.60;59.40;;;;;;5110315;28;20054;-52
2021/04/28 06:00:45;;;;;;;6.97;3.80;;;7.80;59.00;;;;;;5106109;28;20047;-49
2021/04/28 06:03:12;;;;;;;5.30;3.92;;;7.80;57.00;;;;;;5105730;28;20503;-48
2021/04/28 06:05:41;;;;;;;34.25;22.52;;;8.00;58.30;;;;;;5109214;28;20058;-49
2021/04/28 06:08:12;;;;;;;59.22;46.08;;;8.10;58.10;;;;;;5104178;28;20109;-47
2021/04/28 06:10:41;;;;;;;29.00;22.98;;;8.30;57.40;;;;;;5109730;28;20056;-49
2021/04/28 06:13:08;;;;;;;15.63;12.20;;;8.60;56.40;;;;;;5108215;28;20055;-51
2021/04/28 06:15:35;;;;;;;40.30;33.30;;;8.60;56.20;;;;;;5107384;28;20051;-50
2021/04/28 06:18:08;;;;;;;24.75;20.27;;;8.70;54.90;;;;;;5100665;28;20213;-52
2021/04/28 06:20:36;;;;;;;14.00;8.50;;;8.80;55.50;;;;;;5104890;28;20100;-51
2021/04/28 06:23:05;;;;;;;12.88;5.72;;;8.90;53.20;;;;;;5095550;28;20584;-55
2021/04/28 06:25:34;;;;;;;9.70;5.25;;;9.10;54.60;;;;;;5106999;28;20463;-52
2021/04/28 06:28:07;;;;;;;50.53;36.25;;;9.30;53.70;;;;;;5108103;28;20046;-53
2021/04/28 06:30:34;;;;;;;65.97;54.42;;;9.40;54.10;;;;;;5099228;28;20055;-52
2021/04/28 06:33:04;;;;;;;12.50;9.80;;;9.80;54.00;;;;;;5102986;28;20047;-51
2021/04/28 06:35:35;;;;;;;46.03;37.05;;;9.80;52.90;;;;;;5106418;28;20051;-53
2021/04/28 06:38:02;;;;;;;11.67;7.23;;;10.10;51.50;;;;;;5105078;28;20579;-50
2021/04/28 06:40:28;;;;;;;17.58;13.25;;;10.40;51.50;;;;;;5106021;28;20128;-52
2021/04/28 06:42:54;;;;;;;10.80;8.15;;;10.50;50.10;;;;;;5104477;28;20077;-53
2021/04/28 06:45:24;;;;;;;19.27;11.10;;;10.50;48.70;;;;;;5101473;28;20052;-49
2021/04/28 06:47:53;;;;;;;18.75;13.63;;;10.60;47.80;;;;;;5099789;28;20052;-52
2021/04/28 06:50:25;;;;;;;7.25;4.72;;;10.80;48.70;;;;;;5108280;28;20055;-50
2021/04/28 06:52:51;;;;;;;7.95;5.47;;;11.00;47.20;;;;;;5107399;28;20052;-52
2021/04/28 06:55:21;;;;;;;17.15;12.73;;;11.20;46.30;;;;;;5107450;28;20056;-50
2021/04/28 06:57:56;;;;;;;13.13;8.88;;;11.40;46.40;;;;;;5094308;28;20136;-51
2021/04/28 07:00:26;;;;;;;10.07;5.85;;;11.60;45.10;;;;;;5102046;28;20058;-52
2021/04/28 07:02:54;;;;;;;17.98;13.38;;;11.90;45.70;;;;;;5106397;28;20376;-53
2021/04/28 07:05:25;;;;;;;15.63;11.05;;;12.30;45.20;;;;;;5106591;28;20043;-54
2021/04/28 07:07:53;;;;;;;16.47;10.93;;;12.40;42.60;;;;;;5106938;28;20117;-51
2021/04/28 07:10:26;;;;;;;16.65;10.57;;;12.70;42.50;;;;;;5098292;28;20058;-52
2021/04/28 07:12:55;;;;;;;33.65;28.85;;;12.70;42.50;;;;;;5106838;28;20504;-52
2021/04/28 07:15:29;;;;;;;9.63;4.68;;;12.70;42.90;;;;;;5107098;28;20055;-52
2021/04/28 07:17:58;;;;;;;12.68;11.35;;;13.00;42.30;;;;;;5107298;28;20066;-50
2021/04/28 07:20:27;;;;;;;13.20;10.65;;;13.30;42.90;;;;;;5109177;28;20083;-51
2021/04/28 07:22:58;;;;;;;28.02;24.02;;;13.70;42.00;;;;;;5108966;28;20043;-51
2021/04/28 07:25:28;;;;;;;15.27;12.20;;;13.80;42.50;;;;;;5112544;28;20049;-53
2021/04/28 07:27:54;;;;;;;21.52;17.90;;;14.00;41.70;;;;;;5096651;28;20607;-52
2021/04/28 07:30:26;;;;;;;19.40;15.95;;;14.00;41.20;;;;;;5105529;28;20499;-52
2021/04/28 07:32:55;;;;;;;10.18;6.88;;;14.20;41.10;;;;;;5098409;28;20044;-53
2021/04/28 07:35:23;;;;;;;7.88;6.90;;;14.10;41.80;;;;;;5102417;28;20051;-54
2021/04/28 07:37:53;;;;;;;30.00;25.40;;;14.40;40.80;;;;;;5105929;28;20051;-52
2021/04/28 07:40:23;;;;;;;15.18;9.63;;;14.70;41.50;;;;;;5104418;28;20127;-50
2021/04/28 07:42:53;;;;;;;10.23;6.90;;;14.70;39.70;;;;;;5078416;28;20101;-53
2021/04/28 07:45:20;;;;;;;9.75;5.93;;;14.90;39.00;;;;;;5097626;28;20048;-53
2021/04/28 07:47:51;;;;;;;74.10;65.80;;;15.10;39.60;;;;;;5103060;28;20857;-51
2021/04/28 07:50:18;;;;;;;8.30;5.30;;;15.00;40.20;;;;;;5100210;28;20055;-51
2021/04/28 07:52:49;;;;;;;20.27;17.10;;;15.60;38.90;;;;;;5102273;28;20396;-51
2021/04/28 07:55:16;;;;;;;16.60;12.37;;;15.80;38.60;;;;;;5104882;28;20450;-49
2021/04/28 07:57:43;;;;;;;8.15;5.72;;;16.00;37.50;;;;;;5089374;28;20056;-53
2021/04/28 08:00:13;;;;;;;25.98;22.20;;;16.10;36.80;;;;;;5104578;28;20058;-51
2021/04/28 08:02:41;;;;;;;8.10;5.10;;;16.30;37.60;;;;;;5103321;28;20054;-52
2021/04/28 08:05:07;;;;;;;7.85;5.43;;;16.40;37.80;;;;;;5103649;28;20124;-52
2021/04/28 08:07:36;;;;;;;8.05;5.82;;;16.70;37.50;;;;;;5106501;28;20088;-51
2021/04/28 08:10:08;;;;;;;22.77;20.33;;;16.90;37.10;;;;;;5105496;28;20048;-52
2021/04/28 08:12:35;;;;;;;15.93;12.10;;;17.10;36.40;;;;;;5102677;28;20040;-50
2021/04/28 08:15:05;;;;;;;11.88;7.40;;;16.90;35.80;;;;;;5102524;28;20044;-52
2021/04/28 08:17:33;;;;;;;27.30;23.80;;;17.00;35.80;;;;;;5104583;28;20096;-50
2021/04/28 08:20:00;;;;;;;44.10;39.35;;;17.30;35.30;;;;;;5097637;28;20048;-51
2021/04/28 08:22:29;;;;;;;20.45;17.60;;;17.20;35.00;;;;;;5103105;28;20040;-49
2021/04/28 08:24:59;;;;;;;23.55;20.17;;;17.60;34.40;;;;;;5098711;28;20043;-50
2021/04/28 08:27:28;;;;;;;18.42;12.27;;;17.70;34.20;;;;;;5097180;28;20075;-50
2021/04/28 08:29:56;;;;;;;12.68;9.05;;;17.80;33.30;;;;;;5100932;28;20052;-51
2021/04/28 08:32:25;;;;;;;10.32;7.50;;;18.20;34.20;;;;;;5102489;28;20047;-53
2021/04/28 08:34:51;;;;;;;11.85;8.38;;;18.30;33.20;;;;;;5102947;28;20047;-52
2021/04/28 08:37:22;;;;;;;8.25;6.55;;;18.50;33.40;;;;;;5102709;28;20039;-52
2021/04/28 08:39:50;;;;;;;11.32;6.32;;;18.50;33.30;;;;;;5102189;28;20108;-50
2021/04/28 08:42:19;;;;;;;10.90;9.43;;;18.80;33.30;;;;;;5083984;28;20120;-51
2021/04/28 08:44:47;;;;;;;9.45;5.63;;;19.00;32.30;;;;;;5100002;28;20058;-52
2021/04/28 08:47:18;;;;;;;12.07;9.07;;;19.00;32.00;;;;;;5095540;28;20555;-53
2021/04/28 08:49:44;;;;;;;26.13;21.25;;;19.20;32.00;;;;;;5104435;28;20100;-51
2021/04/28 08:52:16;;;;;;;28.52;24.17;;;19.10;31.60;;;;;;5104299;28;20467;-48
2021/04/28 08:54:47;;;;;;;12.82;9.48;;;19.40;31.30;;;;;;5080561;28;20058;-53
2021/04/28 08:57:13;;;;;;;9.98;7.85;;;19.20;30.70;;;;;;5103777;28;20449;-52
2021/04/28 08:59:40;;;;;;;29.00;25.92;;;19.60;29.40;;;;;;5101763;28;20071;-51
2021/04/28 09:02:24;;;;;;;12.02;8.07;;;19.70;29.40;;;;;;5102742;28;20048;-51
2021/04/28 09:05:09;;;;;;;14.00;10.13;;;19.70;29.60;;;;;;5101413;28;20128;-51
2021/04/28 09:07:37;;;;;;;18.08;13.80;;;19.90;29.40;;;;;;5103058;28;20047;-51
2021/04/28 09:10:31;;;;;;;7.30;6.03;;;20.10;29.60;;;;;;5101979;28;20096;-49
2021/04/28 09:13:00;;;;;;;21.95;17.73;;;19.80;28.90;;;;;;5098653;28;20518;-52
2021/04/28 09:15:41;;;;;;;14.77;10.43;;;20.00;29.80;;;;;;5107411;28;20054;-53
2021/04/28 09:18:19;;;;;;;17.92;16.05;;;20.10;29.60;;;;;;5110912;28;20043;-50
2021/04/28 09:21:16;;;;;;;30.67;27.30;;;20.50;29.50;;;;;;5095674;28;20597;-53
2021/04/28 09:24:18;;;;;;;;;;;20.60;28.90;;;;;;5027510;28;20103;-51
2021/04/28 09:27:38;;;;;;;31.42;28.00;;;20.40;28.50;;;;;;4982670;28;19935;-53
2021/04/28 09:30:24;;;;;;;16.60;11.10;;;20.60;28.10;;;;;;4982476;28;20047;-52
2021/04/28 09:33:02;;;;;;;14.85;12.43;;;21.00;28.60;;;;;;4982112;28;20313;-53
2021/04/28 09:35:28;;;;;;;15.55;12.20;;;21.30;27.40;;;;;;4983844;28;20066;-52
2021/04/28 09:38:04;;;;;;;14.18;12.75;;;21.10;26.70;;;;;;4973275;28;20054;-52
2021/04/28 09:40:49;;;;;;;9.95;7.40;;;21.40;26.60;;;;;;4987807;28;20435;-54
2021/04/28 09:43:20;;;;;;;18.83;16.05;;;20.80;26.40;;;;;;4970329;28;20771;-50
2021/04/28 09:45:49;;;;;;;9.48;6.82;;;21.40;27.80;;;;;;4989533;28;20050;-52
2021/04/28 09:48:20;;;;;;;23.83;21.02;;;21.40;27.00;;;;;;4982971;28;20093;-52
2021/04/28 09:50:47;;;;;;;20.10;17.88;;;21.50;26.80;;;;;;4970105;28;20507;-53
2021/04/28 09:53:27;;;;;;;11.57;10.15;;;21.20;26.40;;;;;;4985934;28;20050;-52
2021/04/28 09:55:55;;;;;;;9.15;6.53;;;21.30;25.60;;;;;;4976426;28;20054;-52
2021/04/28 09:58:53;;;;;;;13.35;10.23;;;21.70;26.20;;;;;;4992369;28;20053;-52
2021/04/28 10:01:33;;;;;;;13.57;10.15;;;21.80;26.20;;;;;;5061877;28;20099;-49
2021/04/28 10:04:01;;;;;;;12.20;10.90;;;21.50;24.80;;;;;;5060044;28;20891;-50
2021/04/28 10:06:59;;;;;;;10.02;7.18;;;21.30;25.90;;;;;;5065659;28;20163;-50
2021/04/28 10:09:29;;;;;;;14.30;12.80;;;21.60;25.50;;;;;;5018173;28;20045;-54
2021/04/28 10:11:57;;;;;;;13.73;9.35;;;22.20;26.70;;;;;;5015900;28;20068;-50
2021/04/28 10:14:25;;;;;;;8.63;6.10;;;22.40;25.60;;;;;;5016954;28;20045;-53
2021/04/28 10:16:53;;;;;;;8.27;7.07;;;22.20;26.10;;;;;;5016983;28;20129;-50
2021/04/28 10:19:25;;;;;;;8.20;6.72;;;22.30;25.70;;;;;;5016947;28;20069;-52
2021/04/28 10:21:54;;;;;;;11.38;6.20;;;22.30;24.80;;;;;;5015669;28;20053;-54
2021/04/28 10:24:22;;;;;;;9.23;6.55;;;22.50;24.70;;;;;;5013838;28;20128;-53
2021/04/28 10:26:49;;;;;;;9.00;6.88;;;21.80;24.50;;;;;;5012470;28;20052;-53
2021/04/28 10:29:20;;;;;;;8.80;6.55;;;22.10;25.90;;;;;;5013306;28;20057;-51
2021/04/28 10:31:48;;;;;;;10.48;7.53;;;22.30;25.30;;;;;;5005375;28;20050;-54
2021/04/28 10:34:32;;;;;;;6.75;5.55;;;22.30;25.70;;;;;;5006329;28;20580;-52
2021/04/28 10:37:04;;;;;;;9.65;7.10;;;22.10;25.00;;;;;;4995891;28;20050;-52
2021/04/28 10:39:30;;;;;;;12.27;8.45;;;22.50;25.00;;;;;;5016179;28;20045;-49
2021/04/28 10:41:57;;;;;;;16.42;13.55;;;22.30;24.80;;;;;;5017362;28;20093;-50
2021/04/28 10:44:29;;;;;;;9.95;7.22;;;22.30;25.00;;;;;;5027066;28;20183;-49
2021/04/28 10:47:14;;;;;;;10.52;8.65;;;22.20;25.50;;;;;;5063358;28;20190;-53
2021/04/28 10:50:10;;;;;;;11.35;10.05;;;23.00;26.70;;;;;;5093740;28;20826;-51
2021/04/28 10:52:41;;;;;;;15.18;13.52;;;22.30;23.50;;;;;;5105882;28;20043;-51
2021/04/28 10:55:45;;;;;;;11.07;9.82;;;23.10;25.10;;;;;;5102832;28;20523;-48
2021/04/28 10:58:29;;;;;;;7.97;7.15;;;22.80;24.40;;;;;;5101286;28;20070;-50
2021/04/28 11:01:04;;;;;;;17.58;15.75;;;23.00;24.50;;;;;;5086477;28;20676;-49
2021/04/28 11:03:34;;;;;;;8.77;7.95;;;23.40;25.50;;;;;;5101058;28;20070;-49
2021/04/28 11:06:25;;;;;;;12.63;11.32;;;23.30;24.90;;;;;;5103266;28;20051;-50
2021/04/28 11:09:00;;;;;;;18.58;16.73;;;23.60;25.20;;;;;;5103795;28;20089;-49
2021/04/28 11:11:44;;;;;;;9.05;8.15;;;23.80;24.40;;;;;;5095456;28;20052;-51
2021/04/28 11:14:11;;;;;;;9.18;7.53;;;23.90;23.70;;;;;;5108177;28;20039;-51
2021/04/28 11:16:58;;;;;;;10.55;8.05;;;23.50;23.20;;;;;;5103684;28;20043;-50
2021/04/28 11:19:37;;;;;;;8.43;7.63;;;23.40;23.80;;;;;;5103369;28;20811;-53
2021/04/28 11:22:29;;;;;;;9.73;8.38;;;23.30;23.40;;;;;;5091365;28;20084;-50
2021/04/28 11:25:00;;;;;;;14.65;9.18;;;23.50;24.00;;;;;;5089133;28;20110;-53
2021/04/28 11:27:57;;;;;;;9.40;7.88;;;23.70;24.40;;;;;;5106636;28;20397;-51
2021/04/28 11:30:46;;;;;;;8.80;8.00;;;23.60;24.10;;;;;;5105830;28;20057;-50
2021/04/28 11:33:14;;;;;;;10.38;7.50;;;23.00;23.30;;;;;;5096718;28;20047;-50
2021/04/28 11:35:52;;;;;;;9.35;7.80;;;23.60;25.00;;;;;;5104259;28;20046;-52
2021/04/28 11:38:28;;;;;;;9.02;8.05;;;23.80;25.50;;;;;;5101841;28;20048;-50
2021/04/28 11:41:10;;;;;;;9.90;8.90;;;23.60;25.10;;;;;;5102997;28;20392;-46
2021/04/28 11:43:46;;;;;;;13.88;9.98;;;23.60;23.80;;;;;;5104348;28;20066;-51
2021/04/28 11:46:21;;;;;;;11.05;9.70;;;22.70;23.50;;;;;;5102142;28;20063;-51
2021/04/28 11:48:50;;;;;;;13.45;9.65;;;22.70;24.00;;;;;;5096812;28;20072;-51
2021/04/28 11:51:22;;;;;;;12.13;8.38;;;22.50;24.60;;;;;;5105735;28;20057;-51
2021/04/28 11:53:53;;;;;;;12.23;8.68;;;22.80;24.70;;;;;;5105217;28;20473;-51
2021/04/28 11:56:30;;;;;;;42.67;38.35;;;22.70;24.00;;;;;;5105391;28;20044;-51
2021/04/28 11:58:59;;;;;;;9.70;8.65;;;23.30;24.40;;;;;;5084798;28;20051;-48
2021/04/28 12:01:28;;;;;;;22.35;20.20;;;23.90;24.70;;;;;;5110766;28;20045;-50
2021/04/28 12:03:56;;;;;;;13.70;10.60;;;24.00;24.70;;;;;;5104913;28;20051;-52
2021/04/28 12:06:31;;;;;;;12.88;8.65;;;23.80;24.30;;;;;;5107611;28;20051;-51
2021/04/28 12:09:09;;;;;;;11.70;9.32;;;23.10;23.70;;;;;;5103146;28;20502;-52
2021/04/28 12:11:41;;;;;;;19.17;16.48;;;23.40;23.80;;;;;;5110957;28;20407;-52
2021/04/28 12:14:07;;;;;;;10.77;9.38;;;23.30;23.90;;;;;;5105056;28;20051;-49
2021/04/28 12:16:55;;;;;;;34.40;30.98;;;23.40;23.60;;;;;;5102033;28;20189;-51
2021/04/28 12:19:22;;;;;;;18.25;16.40;;;23.20;25.00;;;;;;5099214;28;20048;-50
2021/04/28 12:22:01;;;;;;;96.43;87.28;;;23.60;24.10;;;;;;5106849;28;20047;-48
2021/04/28 12:24:36;;;;;;;45.15;40.67;;;24.00;25.20;;;;;;5102061;28;20048;-48
2021/04/28 12:27:11;;;;;;;22.30;20.10;;;24.40;25.10;;;;;;5101672;28;20075;-52
2021/04/28 12:29:47;;;;;;;15.05;13.60;;;24.60;24.00;;;;;;5105637;28;20047;-51
2021/04/28 12:32:31;;;;;;;18.92;16.33;;;23.90;22.80;;;;;;5104626;28;20483;-48
2021/04/28 12:35:15;;;;;;;13.45;12.02;;;24.40;24.30;;;;;;5096997;28;20054;-47
2021/04/28 12:37:59;;;;;;;11.55;10.35;;;24.80;23.70;;;;;;5101360;28;20039;-51
2021/04/28 12:40:43;;;;;;;12.18;10.48;;;25.10;23.30;;;;;;5084780;28;20061;-53
2021/04/28 12:43:12;;;;;;;14.07;9.55;;;25.80;22.90;;;;;;5099946;28;20047;-52
2021/04/28 12:45:38;;;;;;;18.92;14.38;;;25.80;23.70;;;;;;5101787;28;20047;-49
2021/04/28 12:48:09;;;;;;;15.38;12.38;;;25.40;24.70;;;;;;5105584;28;20143;-53
2021/04/28 12:50:37;;;;;;;10.90;8.88;;;25.80;23.90;;;;;;5104176;28;20176;-51
2021/04/28 12:53:12;;;;;;;9.55;8.52;;;25.70;22.70;;;;;;5086949;28;20494;-51
2021/04/28 12:55:43;;;;;;;10.95;9.38;;;26.00;23.50;;;;;;5108459;28;20570;-51
2021/04/28 12:58:12;;;;;;;11.02;9.57;;;26.00;23.00;;;;;;5101240;28;20052;-51
2021/04/28 13:00:51;;;;;;;10.60;9.60;;;25.60;22.70;;;;;;5064617;28;20144;-51
2021/04/28 13:03:21;;;;;;;35.80;32.53;;;25.60;22.20;;;;;;5104652;28;20128;-52
2021/04/28 13:06:03;;;;;;;15.80;14.02;;;25.40;23.10;;;;;;5101050;28;20141;-52
2021/04/28 13:08:40;;;;;;;24.98;14.18;;;24.90;22.10;;;;;;5103064;28;20440;-53
2021/04/28 13:11:22;;;;;;;12.25;9.70;;;25.50;23.40;;;;;;5105223;28;20770;-51
2021/04/28 13:13:57;;;;;;;16.52;12.77;;;26.00;24.60;;;;;;5111555;28;20047;-54
2021/04/28 13:16:27;;;;;;;16.20;13.23;;;26.20;25.40;;;;;;5109459;28;20130;-52